Time;durP1;ratioP1;P1;durP2;ratioP2;P2;SDS_P1;SDS_P2;PMS_P1;PMS_P2;Temp;Humidity;BMP_temperature;BMP_pressure;BME280_temperature;BME280_humidity;BME280_pressure;Samples;Min_cycle;Max_cycle;Signal;HPM_P1;HPM_P2
2022/02/01 00:02:10;;;;;;;;;;;;;;;4.10;100.00;97632.25;4977047;28;20114;-59
2022/02/01 00:08:03;;;;;;;25.02;15.68;;;;;;;4.07;100.00;97634.94;4979731;28;20081;-57
2022/02/01 00:13:46;;;;;;;28.05;16.15;;;;;;;4.00;100.00;97625.53;4972314;28;20081;-60
2022/02/01 00:37:52;;;;;;;24.98;16.08;;;;;;;4.00;100.00;97619.44;4974470;28;20076;-56
2022/02/01 00:40:39;;;;;;;28.13;15.80;;;;;;;4.01;100.00;97624.66;4956451;28;20108;-64
2022/02/01 00:43:25;;;;;;;27.50;15.88;;;;;;;4.03;100.00;97625.44;4951705;28;20109;-59
2022/02/01 00:46:10;;;;;;;29.42;17.15;;;;;;;3.93;100.00;97625.75;4965222;28;20054;-59
2022/02/01 00:48:55;;;;;;;31.23;17.33;;;;;;;3.35;100.00;97617.75;4967461;28;20521;-59
2022/02/01 00:51:40;;;;;;;33.22;19.02;;;;;;;2.91;100.00;97623.22;4985840;28;20136;-58
2022/02/01 00:54:25;;;;;;;34.40;18.98;;;;;;;2.68;100.00;97639.47;4985460;28;20147;-57
2022/02/01 00:57:12;;;;;;;;;;;;;;;2.65;100.00;97633.47;4968654;28;20113;-59
2022/02/01 00:59:57;;;;;;;33.90;18.38;;;;;;;2.56;100.00;97623.19;4985452;28;19971;-56
2022/02/01 01:02:42;;;;;;;34.60;18.88;;;;;;;2.69;100.00;97619.41;4968668;28;20442;-58
2022/02/01 01:05:28;;;;;;;31.20;17.83;;;;;;;3.07;100.00;97622.81;4979422;28;20057;-55
2022/02/01 01:08:14;;;;;;;29.50;16.88;;;;;;;3.38;100.00;97622.91;4981268;28;20074;-54
2022/02/01 01:11:01;;;;;;;30.85;17.17;;;;;;;3.55;100.00;97604.97;4962510;28;20053;-55
2022/02/01 01:17:06;;;;;;;29.37;16.10;;;;;;;3.78;100.00;97619.19;4985627;28;20058;-60
2022/02/01 01:44:09;;;;;;;32.92;19.00;;;;;;;4.18;100.00;97638.13;4975101;28;20096;-55
2022/02/01 01:53:12;;;;;;;34.78;19.48;;;;;;;4.12;100.00;97645.31;4983466;28;20057;-59
2022/02/01 01:55:57;;;;;;;34.78;19.98;;;;;;;3.96;100.00;97620.44;4969443;28;20070;-58
2022/02/01 01:58:42;;;;;;;32.25;18.77;;;;;;;3.94;100.00;97641.44;4968856;28;20132;-58
2022/02/01 02:01:29;;;;;;;36.08;20.48;;;;;;;3.87;100.00;97639.88;4997615;28;20045;-54
2022/02/01 02:04:14;;;;;;;35.08;19.00;;;;;;;3.86;100.00;97640.81;4949977;28;20097;-55
2022/02/01 02:06:59;;;;;;;36.83;20.15;;;;;;;3.66;100.00;97637.00;4973047;28;20414;-57
2022/02/01 02:09:44;;;;;;;35.83;20.38;;;;;;;3.35;100.00;97642.19;4984327;28;20172;-57
2022/02/01 02:15:46;;;;;;;41.42;22.52;;;;;;;2.92;100.00;97649.38;4967909;28;20100;-56
2022/02/01 02:18:34;;;;;;;38.72;21.10;;;;;;;3.04;100.00;97650.81;4981116;28;20057;-58
2022/02/01 02:21:21;;;;;;;43.63;21.52;;;;;;;2.80;100.00;97649.66;4986544;28;20406;-56
2022/02/01 02:24:08;;;;;;;40.13;22.00;;;;;;;3.05;100.00;97658.63;4995576;28;20533;-56
2022/02/01 02:26:55;;;;;;;42.95;22.17;;;;;;;2.98;100.00;97643.13;4957393;28;20049;-54
2022/02/01 02:29:41;;;;;;;39.70;20.55;;;;;;;3.22;100.00;97658.22;4972516;28;20053;-62
2022/02/01 02:32:26;;;;;;;36.45;21.23;;;;;;;3.11;100.00;97657.63;4990365;28;20053;-54
2022/02/01 02:35:12;;;;;;;39.40;21.58;;;;;;;3.04;100.00;97654.31;4969082;28;20050;-54
2022/02/01 02:37:58;;;;;;;40.83;20.85;;;;;;;3.01;100.00;97651.75;4980159;28;20133;-54
2022/02/01 02:41:01;;;;;;;37.90;20.10;;;;;;;3.18;100.00;97652.22;4980966;28;20105;-56
2022/02/01 02:46:59;;;;;;;41.28;20.90;;;;;;;2.86;100.00;97656.50;4967037;28;20050;-56
2022/02/01 02:49:44;;;;;;;40.05;20.98;;;;;;;2.75;100.00;97663.75;4978026;28;20046;-54
2022/02/01 02:52:29;;;;;;;43.95;22.25;;;;;;;2.62;100.00;97651.84;4988633;28;20613;-55
2022/02/01 02:55:14;;;;;;;41.55;20.77;;;;;;;2.47;100.00;97658.28;4971658;28;20402;-56
2022/02/01 02:58:00;;;;;;;42.22;20.95;;;;;;;2.24;100.00;97654.41;4988460;28;20362;-53
2022/02/01 03:00:47;;;;;;;39.15;20.65;;;;;;;2.43;100.00;97663.59;4987469;28;20049;-58
2022/02/01 03:03:32;;;;;;;34.60;18.58;;;;;;;2.38;100.00;97650.59;4971534;28;20057;-51
2022/02/01 03:06:17;;;;;;;39.92;20.85;;;;;;;2.48;100.00;97657.38;4982285;28;20109;-56
2022/02/01 03:09:02;;;;;;;40.60;20.70;;;;;;;2.33;100.00;97662.09;4986718;28;20065;-54
2022/02/01 03:11:51;;;;;;;42.28;20.73;;;;;;;2.22;100.00;97669.28;4975786;28;20133;-57
2022/02/01 03:14:53;;;;;;;36.05;18.85;;;;;;;2.33;100.00;97675.16;4973054;28;20578;-61
2022/02/01 03:20:41;;;;;;;38.78;18.80;;;;;;;2.04;100.00;97639.16;4971141;28;20113;-53
2022/02/01 03:23:26;;;;;;;38.42;19.15;;;;;;;2.29;100.00;97679.56;4987127;28;20145;-55
2022/02/01 03:26:13;;;;;;;38.70;20.25;;;;;;;2.31;100.00;97687.38;4973916;28;20058;-51
2022/02/01 03:28:59;;;;;;;39.05;19.15;;;;;;;2.24;100.00;97689.28;4977049;28;20166;-53
2022/02/01 03:31:44;;;;;;;35.60;18.00;;;;;;;2.16;100.00;97685.97;4966802;28;20106;-56
2022/02/01 03:34:30;;;;;;;36.35;18.83;;;;;;;2.38;100.00;97689.81;4954905;28;20085;-52
2022/02/01 03:37:16;;;;;;;37.13;18.45;;;;;;;2.40;100.00;97685.44;4976042;28;20057;-58
2022/02/01 03:40:02;;;;;;;37.63;18.38;;;;;;;2.38;100.00;97704.69;4988288;28;20617;-57
2022/02/01 03:42:48;;;;;;;40.38;18.95;;;;;;;2.48;100.00;97696.59;4980945;28;20154;-56
2022/02/01 03:45:33;;;;;;;37.20;18.33;;;;;;;2.14;100.00;97640.69;4988590;28;20418;-59
2022/02/01 03:48:19;;;;;;;37.00;19.15;;;;;;;2.51;100.00;97690.44;4946503;28;20076;-56
2022/02/01 03:51:04;;;;;;;;;;;;;;;2.82;100.00;97715.03;4971986;28;20049;-57
2022/02/01 03:53:49;;;;;;;40.78;18.33;;;;;;;2.91;100.00;97706.97;4983521;28;19932;-56
2022/02/01 03:56:35;;;;;;;39.17;19.73;;;;;;;2.45;100.00;97707.13;4983339;28;20058;-54
2022/02/01 03:59:22;;;;;;;41.78;21.08;;;;;;;2.14;100.00;97708.63;4959375;28;20100;-56
2022/02/01 04:02:09;;;;;;;39.97;19.70;;;;;;;2.04;100.00;97709.72;4985033;28;20045;-55
2022/02/01 04:04:55;;;;;;;41.67;20.33;;;;;;;2.20;100.00;97699.81;4984995;28;20097;-60
2022/02/01 04:07:47;;;;;;;38.45;18.90;;;;;;;2.46;100.00;97719.28;4972621;28;20109;-54
2022/02/01 04:10:32;;;;;;;35.80;17.98;;;;;;;2.68;100.00;97724.94;4980091;28;20049;-57
2022/02/01 04:13:19;;;;;;;38.00;18.85;;;;;;;2.48;100.00;97717.53;4970042;28;20069;-56
2022/02/01 04:16:05;;;;;;;35.17;17.38;;;;;;;2.08;100.00;97720.97;4973097;28;20065;-59
2022/02/01 04:18:51;;;;;;;37.15;17.63;;;;;;;2.05;100.00;97723.66;4962441;28;20077;-59
2022/02/01 04:21:38;;;;;;;38.88;19.23;;;;;;;1.93;100.00;97724.72;4972276;28;20101;-60
2022/02/01 04:24:23;;;;;;;34.58;17.55;;;;;;;1.78;100.00;97732.00;4991099;28;20196;-58
2022/02/01 04:27:32;;;;;;;37.97;19.00;;;;;;;1.64;100.00;97737.47;4954406;28;20057;-58
2022/02/01 04:30:17;;;;;;;40.15;18.50;;;;;;;1.63;100.00;97738.38;4972917;28;20442;-58
2022/02/01 04:33:07;;;;;;;35.50;16.80;;;;;;;1.57;100.00;97730.63;4988134;28;20066;-57
2022/02/01 04:35:53;;;;;;;34.85;17.52;;;;;;;1.54;100.00;97743.72;4970442;28;20049;-61
2022/02/01 04:38:40;;;;;;;35.08;18.20;;;;;;;1.39;100.00;97744.00;4978881;28;20077;-55
2022/02/01 04:41:28;;;;;;;36.05;17.13;;;;;;;1.27;100.00;97725.06;4966993;28;20561;-59
2022/02/01 04:44:15;;;;;;;34.42;18.58;;;;;;;1.31;100.00;97760.66;4980205;28;20085;-57
2022/02/01 04:47:02;;;;;;;34.55;16.52;;;;;;;1.54;100.00;97769.00;4972712;28;20056;-57
2022/02/01 04:49:48;;;;;;;33.08;17.05;;;;;;;1.72;100.00;97776.50;4965904;28;20142;-59
2022/02/01 04:52:35;;;;;;;39.03;18.52;;;;;;;1.58;100.00;97773.28;4954553;28;20510;-56
2022/02/01 04:55:24;;;;;;;37.75;18.67;;;;;;;1.57;100.00;97772.41;4968683;28;20057;-60
2022/02/01 04:58:09;;;;;;;31.00;16.00;;;;;;;1.58;100.00;97781.13;4974554;28;20103;-59
2022/02/01 05:00:54;;;;;;;;;;;;;;;1.53;100.00;97782.91;4974937;28;20061;-54
2022/02/01 05:03:41;;;;;;;30.25;14.77;;;;;;;1.47;100.00;97780.41;4970108;28;20397;-56
2022/02/01 05:06:28;;;;;;;31.98;15.55;;;;;;;1.50;100.00;97781.22;4963207;28;20053;-55
2022/02/01 05:09:16;;;;;;;29.65;15.45;;;;;;;1.42;100.00;97800.53;4967355;28;20101;-56
2022/02/01 05:12:05;;;;;;;30.58;16.35;;;;;;;1.45;100.00;97795.22;4973883;28;20050;-52
2022/02/01 05:14:51;;;;;;;31.60;16.30;;;;;;;1.39;100.00;97793.59;4936134;28;20057;-54
2022/02/01 05:17:40;;;;;;;31.02;14.35;;;;;;;1.42;100.00;97803.13;4969306;28;20124;-56
2022/02/01 05:20:45;;;;;;;31.45;15.70;;;;;;;1.36;100.00;97801.47;4951163;28;20120;-57
2022/02/01 05:23:32;;;;;;;29.15;14.73;;;;;;;0.62;100.00;97702.56;4986374;28;20061;-54
2022/02/01 05:26:23;;;;;;;30.65;13.98;;;;;;;1.12;100.00;97819.22;4978527;28;20056;-55
2022/02/01 05:29:09;;;;;;;30.55;15.63;;;;;;;0.87;100.00;97783.94;4985566;28;20065;-57
2022/02/01 05:31:53;;;;;;;28.17;15.38;;;;;;;1.08;100.00;97814.94;4985580;28;20475;-56
2022/02/01 05:34:38;;;;;;;29.17;14.85;;;;;;;1.04;100.00;97826.31;4984521;28;20057;-61
2022/02/01 05:37:25;;;;;;;32.63;16.05;;;;;;;0.98;100.00;97831.63;4984169;28;20101;-53
2022/02/01 05:40:12;;;;;;;31.85;16.48;;;;;;;0.96;100.00;97841.19;4985256;28;20067;-55
2022/02/01 05:43:03;;;;;;;28.77;15.23;;;;;;;0.88;100.00;97841.31;4984519;28;20057;-55
2022/02/01 05:45:50;;;;;;;30.90;15.27;;;;;;;0.60;100.00;97802.56;4984224;28;20052;-57
2022/02/01 05:48:37;;;;;;;29.48;15.85;;;;;;;0.80;100.00;97844.88;4981730;28;20060;-62
2022/02/01 05:51:24;;;;;;;30.80;14.82;;;;;;;1.10;100.00;97853.16;4969497;28;20119;-55
2022/02/01 05:54:08;;;;;;;34.05;15.85;;;;;;;1.05;100.00;97868.03;4982383;28;20117;-57
2022/02/01 05:56:54;;;;;;;35.13;16.70;;;;;;;1.15;100.00;97869.63;4982768;28;20410;-61
2022/02/01 05:59:39;;;;;;;35.72;17.52;;;;;;;1.11;100.00;97880.97;4986657;28;20057;-59
2022/02/01 06:02:23;;;;;;;33.35;17.05;;;;;;;1.07;100.00;97868.00;4973546;28;20529;-64
2022/02/01 06:05:08;;;;;;;35.83;16.60;;;;;;;1.06;100.00;97876.72;4984934;28;20060;-60
2022/02/01 06:07:53;;;;;;;34.92;17.50;;;;;;;0.88;100.00;97867.38;4979604;28;20146;-57
2022/02/01 06:10:38;;;;;;;35.90;16.50;;;;;;;1.10;100.00;97881.03;4964939;28;20128;-59
2022/02/01 06:13:24;;;;;;;35.53;16.08;;;;;;;1.44;100.00;97892.72;4968252;28;20045;-63
2022/02/01 06:16:10;;;;;;;34.70;16.63;;;;;;;0.90;100.00;97839.53;4984431;28;20101;-56
2022/02/01 06:18:56;;;;;;;31.20;15.15;;;;;;;1.13;100.00;97897.50;4986234;28;20081;-63
2022/02/01 06:21:41;;;;;;;32.85;14.95;;;;;;;1.40;100.00;97906.69;4981911;28;20197;-66
2022/02/01 06:24:27;;;;;;;33.58;15.35;;;;;;;1.35;100.00;97901.56;4979112;28;20057;-56
2022/02/01 06:27:13;;;;;;;29.30;15.23;;;;;;;1.02;100.00;97872.44;4981741;28;20129;-60
2022/02/01 06:29:57;;;;;;;;;;;;;;;1.52;100.00;97912.63;4972350;28;20048;-56
2022/02/01 06:32:43;;;;;;;26.75;14.25;;;;;;;1.52;100.00;97914.34;4965309;28;20130;-56
2022/02/01 06:35:30;;;;;;;32.85;14.80;;;;;;;1.72;100.00;97921.03;4957329;28;20177;-59
2022/02/01 06:38:18;;;;;;;28.63;13.90;;;;;;;1.94;100.00;97918.94;4959769;28;20132;-64
2022/02/01 06:41:05;;;;;;;29.23;13.35;;;;;;;1.87;100.00;97925.16;4979997;28;20057;-59
2022/02/01 06:43:52;;;;;;;26.10;13.52;;;;;;;1.44;100.00;97927.53;4967000;28;20390;-58
2022/02/01 06:46:38;;;;;;;26.92;14.00;;;;;;;1.14;100.00;97925.31;4986227;28;20112;-58
2022/02/01 06:49:23;;;;;;;29.30;13.98;;;;;;;1.07;100.00;97933.25;4972390;28;20084;-55
2022/02/01 06:52:08;;;;;;;28.60;14.30;;;;;;;1.10;100.00;97941.88;4972123;28;20128;-62
2022/02/01 06:54:55;;;;;;;31.77;13.02;;;;;;;1.17;100.00;97943.53;4968478;28;20057;-62
2022/02/01 06:57:41;;;;;;;23.35;12.27;;;;;;;0.95;100.00;97900.31;4956672;28;20056;-60
2022/02/01 07:00:26;;;;;;;;;;;;;;;1.07;100.00;97959.34;4982964;28;20170;-59
2022/02/01 07:03:12;;;;;;;24.55;13.07;;;;;;;0.81;100.00;97948.31;4982681;28;19975;-59
2022/02/01 07:05:57;;;;;;;30.25;13.88;;;;;;;0.84;100.00;97961.34;4977557;28;20185;-61
2022/02/01 07:08:45;;;;;;;28.63;13.43;;;;;;;0.86;100.00;97949.16;4983514;28;20081;-66
2022/02/01 07:11:32;;;;;;;27.65;13.45;;;;;;;0.98;100.00;97962.91;4959223;28;20049;-53
2022/02/01 07:14:19;;;;;;;31.98;14.98;;;;;;;1.02;100.00;97959.38;4972380;28;20096;-63
2022/02/01 07:17:08;;;;;;;30.80;14.20;;;;;;;1.15;100.00;97967.94;4988338;28;20529;-66
2022/02/01 07:19:56;;;;;;;31.08;14.07;;;;;;;1.41;100.00;97981.50;4976957;28;20129;-70
2022/02/01 07:22:44;;;;;;;30.15;14.60;;;;;;;1.32;100.00;97990.34;4987072;28;20174;-65
2022/02/01 07:25:31;;;;;;;33.15;16.00;;;;;;;1.33;100.00;97983.34;4987097;28;20061;-60
2022/02/01 07:28:20;;;;;;;32.83;15.43;;;;;;;1.38;100.00;97979.81;4960934;28;20058;-55
2022/02/01 07:31:08;;;;;;;33.75;15.10;;;;;;;1.55;100.00;97990.06;4993943;28;20093;-61
2022/02/01 07:33:53;;;;;;;30.08;14.48;;;;;;;1.56;100.00;97978.72;4974673;28;20053;-62
2022/02/01 07:36:40;;;;;;;31.20;14.63;;;;;;;1.53;100.00;97991.81;4959681;28;20177;-57
2022/02/01 07:39:25;;;;;;;31.67;15.30;;;;;;;1.41;100.00;97987.59;4981121;28;20104;-58
2022/02/01 07:42:09;;;;;;;34.70;16.80;;;;;;;1.48;100.00;97994.50;4988614;28;20077;-52
2022/02/01 07:45:01;;;;;;;35.45;15.80;;;;;;;1.43;100.00;97988.47;4986601;28;20060;-57
2022/02/01 07:47:48;;;;;;;35.75;16.10;;;;;;;1.50;100.00;97948.31;4962971;28;20057;-56
2022/02/01 07:50:36;;;;;;;36.78;17.10;;;;;;;1.92;100.00;98009.56;4974628;28;20137;-57
2022/02/01 07:53:22;;;;;;;35.47;16.92;;;;;;;1.99;100.00;98003.34;4979839;28;20049;-56
2022/02/01 07:56:07;;;;;;;35.22;16.15;;;;;;;1.96;100.00;97952.00;4978719;28;20532;-54
2022/02/01 07:58:56;;;;;;;31.48;15.63;;;;;;;2.12;100.00;98007.50;4982073;28;20085;-58
2022/02/01 08:01:41;;;;;;;33.35;15.15;;;;;;;2.31;100.00;98012.44;4989328;28;20053;-53
2022/02/01 08:04:32;;;;;;;33.30;15.50;;;;;;;2.61;100.00;98004.09;4974134;28;20097;-54
2022/02/01 08:07:20;;;;;;;36.65;16.25;;;;;;;2.30;100.00;98018.53;4962031;28;20065;-56
2022/02/01 08:10:12;;;;;;;32.08;15.20;;;;;;;2.61;100.00;98013.72;4984644;28;20053;-54
2022/02/01 08:18:59;;;;;;;33.58;15.63;;;;;;;2.91;100.00;98028.88;4970143;28;20132;-58
2022/02/01 08:21:47;;;;;;;35.08;16.75;;;;;;;2.87;100.00;98030.69;4970291;28;20141;-52
2022/02/01 08:24:32;;;;;;;35.72;16.88;;;;;;;2.81;100.00;98035.16;4961223;28;20439;-58
2022/02/01 08:27:18;;;;;;;31.17;16.13;;;;;;;2.56;100.00;98023.34;4962378;28;20056;-53
2022/02/01 08:30:09;;;;;;;34.83;15.98;;;;;;;2.50;100.00;98047.84;4954366;28;20057;-56
2022/02/01 08:32:57;;;;;;;30.35;15.77;;;;;;;2.83;100.00;98038.59;4985920;28;20141;-55
2022/02/01 08:35:45;;;;;;;29.75;14.73;;;;;;;2.67;100.00;98039.75;4988502;28;20093;-57
2022/02/01 08:38:30;;;;;;;33.08;16.15;;;;;;;2.92;100.00;98023.59;4987231;28;20074;-58
2022/02/01 08:41:15;;;;;;;37.55;16.75;;;;;;;3.23;100.00;98019.53;4972069;28;20188;-57
2022/02/01 08:44:00;;;;;;;33.38;15.68;;;;;;;3.10;100.00;98015.44;4978545;28;20073;-56
2022/02/01 08:46:45;;;;;;;32.72;15.73;;;;;;;3.32;100.00;97985.31;4973132;28;20056;-56
2022/02/01 08:49:31;;;;;;;35.75;15.75;;;;;;;3.45;100.00;98022.59;4971467;28;20077;-57
2022/02/01 08:52:38;;;;;;;33.67;16.13;;;;;;;3.44;100.00;98037.44;4968694;28;20056;-56
2022/02/01 08:55:40;;;;;;;36.35;16.83;;;;;;;3.03;100.00;98037.38;4996412;28;20097;-56
2022/02/01 08:58:28;;;;;;;36.72;17.05;;;;;;;3.14;100.00;98035.44;4969360;28;20065;-63
2022/02/01 09:01:13;;;;;;;34.80;16.05;;;;;;;3.08;100.00;98026.78;4979763;28;20053;-56
2022/02/01 09:03:59;;;;;;;36.60;16.00;;;;;;;3.07;100.00;98012.88;4981258;28;20108;-61
2022/02/01 09:06:45;;;;;;;31.98;15.05;;;;;;;3.24;100.00;98036.13;4986991;28;20061;-58
2022/02/01 09:09:32;;;;;;;31.02;14.98;;;;;;;3.14;100.00;98029.31;4967662;28;20058;-58
2022/02/01 09:12:19;;;;;;;35.58;15.85;;;;;;;2.94;100.00;98034.94;4965634;28;20053;-56
2022/02/01 09:15:05;;;;;;;34.05;15.80;;;;;;;3.03;100.00;98028.66;4976139;28;20490;-57
2022/02/01 09:17:54;;;;;;;33.30;15.18;;;;;;;3.21;100.00;98028.31;4983251;28;20104;-64
2022/02/01 09:20:39;;;;;;;31.33;15.40;;;;;;;3.27;100.00;98017.72;4973584;28;20096;-62
2022/02/01 09:23:25;;;;;;;29.52;14.60;;;;;;;3.30;100.00;98036.88;4955835;28;20073;-70
2022/02/01 09:26:10;;;;;;;29.67;14.57;;;;;;;2.96;100.00;98032.25;4985536;28;20049;-55
2022/02/01 09:28:56;;;;;;;34.72;14.73;;;;;;;2.98;100.00;98036.59;4973039;28;20066;-58
2022/02/01 09:31:41;;;;;;;29.33;14.18;;;;;;;3.17;100.00;98043.19;4973801;28;20077;-55
2022/02/01 09:34:26;;;;;;;29.35;14.65;;;;;;;3.50;100.00;98039.09;4971431;28;20124;-56
2022/02/01 09:37:12;;;;;;;27.70;13.93;;;;;;;3.62;100.00;98030.97;4986771;28;20049;-54
2022/02/01 09:39:57;;;;;;;25.67;13.23;;;;;;;3.26;100.00;98040.44;4982179;28;20108;-58
2022/02/01 09:42:42;;;;;;;26.77;14.07;;;;;;;3.38;100.00;98041.94;4964256;28;20054;-61
2022/02/01 09:45:29;;;;;;;26.02;12.40;;;;;;;3.36;100.00;98049.81;4959647;28;20533;-55
2022/02/01 09:48:13;;;;;;;25.50;12.55;;;;;;;3.45;100.00;98048.78;4969890;28;20518;-57
2022/02/01 09:51:04;;;;;;;28.30;13.07;;;;;;;3.48;100.00;98033.88;4986476;28;20101;-58
2022/02/01 09:53:48;;;;;;;24.98;12.13;;;;;;;3.26;100.00;98050.03;4983132;28;20148;-58
2022/02/01 09:56:34;;;;;;;22.88;12.50;;;;;;;3.41;100.00;98053.22;4985042;28;20053;-61
2022/02/01 09:59:34;;;;;;;26.98;13.15;;;;;;;2.68;100.00;98010.06;4984997;28;20057;-58
2022/02/01 10:02:20;;;;;;;22.63;12.43;;;;;;;3.21;100.00;98055.34;4986342;28;20311;-56
2022/02/01 10:05:10;;;;;;;26.42;13.32;;;;;;;3.30;100.00;98051.69;4957216;28;20057;-59
2022/02/01 10:07:58;;;;;;;27.30;12.20;;;;;;;3.29;100.00;98055.22;4971147;28;20132;-57
2022/02/01 10:10:53;;;;;;;21.35;11.50;;;;;;;3.69;100.00;98057.00;4969736;28;20065;-54
2022/02/01 10:13:40;;;;;;;20.27;10.93;;;;;;;3.12;100.00;98007.53;4985912;28;20085;-59
2022/02/01 10:16:31;;;;;;;21.88;11.23;;;;;;;3.48;100.00;98059.22;4966874;28;20110;-54
2022/02/01 10:19:20;;;;;;;19.05;9.30;;;;;;;3.44;100.00;98060.19;4971787;28;20061;-58
2022/02/01 10:22:05;;;;;;;22.05;10.23;;;;;;;3.46;100.00;98056.63;4971793;28;20155;-57
2022/02/01 10:24:50;;;;;;;18.52;9.70;;;;;;;3.19;100.00;98015.25;4969534;28;20501;-63
2022/02/01 10:27:38;;;;;;;20.83;10.88;;;;;;;3.52;100.00;98061.72;4987526;28;20057;-65
2022/02/01 10:30:40;;;;;;;22.65;10.90;;;;;;;3.99;100.00;98063.38;4985740;28;20097;-60
2022/02/01 10:36:39;;;;;;;19.00;9.77;;;;;;;3.87;100.00;98064.50;4981598;28;20065;-60
2022/02/01 10:39:33;;;;;;;17.67;9.10;;;;;;;3.37;100.00;98055.94;4966544;28;20085;-65
2022/02/01 10:42:17;;;;;;;17.08;9.38;;;;;;;3.52;100.00;98019.81;4987640;28;20088;-64
2022/02/01 10:45:02;;;;;;;17.73;9.77;;;;;;;3.88;100.00;98044.41;4983975;28;20414;-57
2022/02/01 10:47:47;;;;;;;20.23;9.65;;;;;;;3.53;100.00;98015.44;4987201;28;20137;-60
2022/02/01 10:50:32;;;;;;;18.23;9.70;;;;;;;4.07;100.00;98043.97;4986377;28;20072;-59
2022/02/01 10:53:22;;;;;;;15.38;8.30;;;;;;;3.87;100.00;98053.16;4986931;28;20065;-64
2022/02/01 10:56:14;;;;;;;14.20;8.32;;;;;;;3.48;100.00;98059.22;4999701;28;20129;-61
2022/02/01 10:59:01;;;;;;;18.40;7.78;;;;;;;3.11;100.00;98048.56;4985145;28;20073;-59
2022/02/01 11:01:45;;;;;;;13.82;7.45;;;;;;;3.21;100.00;98067.59;4972934;28;20050;-65
2022/02/01 11:04:37;;;;;;;12.98;7.30;;;;;;;3.18;100.00;98067.63;4986303;28;20058;-60
2022/02/01 11:07:22;;;;;;;15.43;7.72;;;;;;;3.00;100.00;98073.19;4984746;28;20160;-59
2022/02/01 11:10:11;;;;;;;13.93;7.93;;;;;;;2.92;100.00;98077.69;4983257;28;20088;-62
2022/02/01 11:13:08;;;;;;;11.82;6.88;;;;;;;2.90;100.00;98074.25;4985729;28;20084;-60
2022/02/01 11:16:03;;;;;;;13.45;6.53;;;;;;;3.28;100.00;98074.44;4980223;28;20202;-60
2022/02/01 11:19:00;;;;;;;16.20;7.60;;;;;;;3.19;100.00;98077.22;4986910;28;20445;-59
2022/02/01 11:21:45;;;;;;;;;;;;;;;3.04;100.00;98075.72;4987221;28;20061;-61
2022/02/01 11:24:36;;;;;;;9.32;5.72;;;;;;;3.00;100.00;98079.31;4983295;28;19924;-61
2022/02/01 11:27:43;;;;;;;10.77;5.93;;;;;;;3.27;100.00;98077.94;4983952;28;20125;-61
2022/02/01 11:30:38;;;;;;;8.75;5.97;;;;;;;3.17;100.00;98084.25;4986962;28;20186;-62
2022/02/01 11:33:38;;;;;;;11.68;6.07;;;;;;;3.31;100.00;98085.72;4987701;28;20108;-62
2022/02/01 11:36:23;;;;;;;10.23;5.95;;;;;;;3.15;100.00;98093.88;4988907;28;20863;-64
2022/02/01 11:39:13;;;;;;;10.25;6.13;;;;;;;3.40;100.00;98085.53;4986500;28;20120;-62
2022/02/01 11:42:00;;;;;;;9.73;5.82;;;;;;;3.14;100.00;98087.78;4984438;28;20100;-60
2022/02/01 11:44:46;;;;;;;9.27;5.70;;;;;;;3.15;100.00;98084.28;4983539;28;20081;-60
2022/02/01 11:47:38;;;;;;;11.23;6.60;;;;;;;3.13;100.00;98087.81;4983963;28;20137;-62
2022/02/01 11:50:26;;;;;;;10.10;6.25;;;;;;;3.28;100.00;98085.78;4987013;28;20534;-59
2022/02/01 11:53:18;;;;;;;10.80;6.38;;;;;;;3.30;100.00;98086.63;4985301;28;20062;-60
2022/02/01 11:56:05;;;;;;;12.57;7.53;;;;;;;3.18;100.00;98086.84;4972297;28;20431;-61
2022/02/01 11:59:00;;;;;;;13.25;7.97;;;;;;;3.31;100.00;98092.69;4987285;28;20057;-59
2022/02/01 12:01:44;;;;;;;14.00;8.52;;;;;;;3.36;100.00;98085.66;4987123;28;20061;-64
2022/02/01 12:04:29;;;;;;;13.93;8.38;;;;;;;3.37;100.00;98072.50;4988385;28;20378;-58
2022/02/01 12:07:14;;;;;;;14.63;8.27;;;;;;;4.69;100.00;98077.53;4982591;28;20097;-60
2022/02/01 12:10:12;;;;;;;14.88;8.30;;;;;;;5.04;100.00;98081.91;4984488;28;20100;-60
2022/02/01 12:12:59;;;;;;;16.80;8.80;;;;;;;4.53;100.00;98088.41;4971856;28;20471;-57
2022/02/01 12:15:45;;;;;;;12.23;7.90;;;;;;;4.47;100.00;98096.41;4980548;28;20060;-54
2022/02/01 12:18:46;;;;;;;12.57;7.75;;;;;;;4.27;100.00;98093.34;4981311;28;20128;-59
2022/02/01 12:22:19;;;;;;;11.98;7.25;;;;;;;3.83;100.00;98107.41;4980978;28;20057;-58
2022/02/01 12:25:10;;;;;;;13.23;8.23;;;;;;;3.23;100.00;98108.56;4972476;28;20057;-60
2022/02/01 12:27:56;;;;;;;15.05;8.25;;;;;;;3.09;100.00;98128.03;4984942;28;20533;-57
2022/02/01 12:30:42;;;;;;;14.93;7.05;;;;;;;3.04;100.00;98132.44;4983410;28;20057;-55
2022/02/01 12:33:27;;;;;;;12.93;6.63;;;;;;;2.95;100.00;98127.38;4985615;28;20057;-55
2022/02/01 12:36:16;;;;;;;11.07;6.65;;;;;;;2.89;100.00;98144.03;4968491;28;20052;-54
2022/02/01 12:39:16;;;;;;;10.52;6.30;;;;;;;2.80;100.00;98140.69;4984770;28;20076;-57
2022/02/01 12:48:03;;;;;;;12.65;6.15;;;;;;;2.59;100.00;98131.44;4981891;28;20126;-58
2022/02/01 12:50:59;;;;;;;11.45;6.90;;;;;;;2.70;100.00;98145.22;4981764;28;20066;-58
2022/02/01 12:53:50;;;;;;;10.20;5.57;;;;;;;2.70;100.00;98153.09;4980000;28;20053;-59
2022/02/01 12:56:34;;;;;;;9.88;5.85;;;;;;;2.65;100.00;98157.50;4979818;28;20837;-57
2022/02/01 12:59:21;;;;;;;10.35;5.75;;;;;;;2.75;100.00;98116.38;4978276;28;20129;-56
2022/02/01 13:02:09;;;;;;;7.15;4.28;;;;;;;2.52;100.00;98160.31;4971757;28;20451;-57
2022/02/01 13:04:58;;;;;;;8.05;4.80;;;;;;;2.50;100.00;98162.94;4979490;28;20050;-57
2022/02/01 13:08:11;;;;;;;7.43;4.90;;;;;;;2.45;100.00;98169.16;4964177;28;20533;-58
2022/02/01 13:14:44;;;;;;;9.43;4.45;;;;;;;2.09;100.00;98123.44;4984136;28;20421;-54
2022/02/01 13:22:55;;;;;;;8.15;4.40;;;;;;;2.18;100.00;98172.97;4970547;28;20056;-55
2022/02/01 13:25:44;;;;;;;8.63;4.70;;;;;;;2.24;100.00;98172.91;4985820;28;20068;-55
2022/02/01 13:28:29;;;;;;;11.02;4.53;;;;;;;2.25;100.00;98177.25;4984955;28;20072;-55
2022/02/01 13:31:15;;;;;;;9.05;5.18;;;;;;;2.30;100.00;98158.88;4984822;28;20185;-57
2022/02/01 13:34:04;;;;;;;13.90;5.68;;;;;;;2.74;100.00;98180.06;4985700;28;20940;-56
2022/02/01 13:37:02;;;;;;;10.25;5.35;;;;;;;2.82;100.00;98180.81;4986320;28;20057;-60
2022/02/01 13:39:48;;;;;;;13.00;5.82;;;;;;;2.24;100.00;98123.22;4984124;28;20088;-55
2022/02/01 13:42:37;;;;;;;12.60;5.60;;;;;;;2.75;100.00;98189.63;4991240;28;20056;-54
2022/02/01 13:45:37;;;;;;;9.13;5.60;;;;;;;2.92;100.00;98183.25;4967277;28;20146;-60
2022/02/01 13:48:27;;;;;;;13.00;6.07;;;;;;;2.86;100.00;98199.06;4974354;28;20065;-59
2022/02/01 13:51:12;;;;;;;13.07;5.93;;;;;;;2.55;100.00;98149.81;4968245;28;20191;-56
2022/02/01 13:54:05;;;;;;;13.95;5.93;;;;;;;2.81;100.00;98186.94;4979953;28;20085;-60
2022/02/01 13:56:52;;;;;;;12.00;5.88;;;;;;;2.73;100.00;98207.13;4981115;28;20132;-56
2022/02/01 13:59:39;;;;;;;14.07;6.82;;;;;;;2.53;100.00;98214.38;4972842;28;20062;-55
2022/02/01 14:02:34;;;;;;;15.68;6.00;;;;;;;2.54;100.00;98216.94;4987056;28;20531;-55
2022/02/01 14:05:30;;;;;;;14.38;5.45;;;;;;;2.50;100.00;98215.25;4986115;28;20431;-56
2022/02/01 14:08:49;;;;;;;9.20;4.50;;;;;;;2.30;100.00;98221.63;4959670;28;20149;-56
2022/02/01 14:33:27;;;;;;;11.55;5.85;;;;;;;2.17;100.00;98213.06;4923690;29;20281;-54
2022/02/01 14:36:08;;;;;;;10.00;5.63;;;;;;;2.23;100.00;98238.28;4950895;29;20069;-56
2022/02/01 14:39:11;;;;;;;10.65;6.00;;;;;;;2.09;100.00;98232.34;4957569;28;20125;-62
2022/02/01 14:45:03;;;;;;;10.77;5.93;;;;;;;1.95;100.00;98172.41;4955884;28;20058;-58
2022/02/01 14:47:47;;;;;;;9.00;6.07;;;;;;;2.34;100.00;98244.25;4969809;28;20081;-60
2022/02/01 14:50:33;;;;;;;12.27;6.78;;;;;;;2.28;100.00;98223.38;4956481;28;20109;-53
2022/02/01 14:53:18;;;;;;;11.98;6.47;;;;;;;2.44;100.00;98238.88;4958835;28;20054;-56
2022/02/01 14:56:18;;;;;;;13.27;5.97;;;;;;;2.63;100.00;98232.53;4999991;28;20468;-58
2022/02/01 15:05:30;;;;;;;10.98;6.78;;;;;;;2.03;100.00;98241.13;4995178;28;20099;-55